createdAt,value
2022-08-23T00:02:30.313Z,13.22
2022-08-23T00:05:08.661Z,13.28
2022-08-23T00:07:41.622Z,13.35
2022-08-23T00:10:15.829Z,13.35
2022-08-23T00:12:47.627Z,13.44
2022-08-23T00:15:20.263Z,13.47
2022-08-23T00:17:50.346Z,13.51
2022-08-23T00:20:21.613Z,13.54
2022-08-23T00:22:51.783Z,13.48
2022-08-23T00:25:22.155Z,13.45
2022-08-23T00:27:53.980Z,13.40
2022-08-23T00:30:24.241Z,13.38
2022-08-23T00:32:56.949Z,13.34
2022-08-23T00:35:28.955Z,13.30
2022-08-23T00:38:31.776Z,13.31
2022-08-23T00:40:53.404Z,13.30
2022-08-23T00:43:55.283Z,13.32
2022-08-23T00:47:03.231Z,13.30
2022-08-23T00:49:35.538Z,13.30
2022-08-23T00:52:14.863Z,13.35
2022-08-23T00:54:46.268Z,13.37
2022-08-23T00:57:20.425Z,13.37
2022-08-23T00:59:50.577Z,13.40
2022-08-23T01:02:20.080Z,13.41
2022-08-23T01:04:57.941Z,13.41
2022-08-23T01:07:44.833Z,13.42
2022-08-23T01:10:48.490Z,13.44
2022-08-23T01:13:56.462Z,13.48
2022-08-23T01:16:49.131Z,13.44
2022-08-23T01:19:48.959Z,13.35
2022-08-23T01:22:29.791Z,13.32
2022-08-23T01:25:06.064Z,13.25
2022-08-23T01:27:42.152Z,13.14
2022-08-23T01:30:19.109Z,13.03
2022-08-23T01:33:00.116Z,12.93
2022-08-23T01:35:40.121Z,12.83
2022-08-23T01:38:12.284Z,12.73
2022-08-23T01:40:44.394Z,12.56
2022-08-23T01:43:15.642Z,12.46
2022-08-23T01:45:45.955Z,12.36
2022-08-23T01:48:18.210Z,12.21
2022-08-23T01:50:49.234Z,12.11
2022-08-23T01:53:19.401Z,11.99
2022-08-23T01:55:52.327Z,11.90
2022-08-23T01:58:23.532Z,11.75
2022-08-23T02:00:53.858Z,11.67
2022-08-23T02:03:23.906Z,11.63
2022-08-23T02:05:53.780Z,11.59
2022-08-23T02:08:41.743Z,11.53
2022-08-23T02:11:12.799Z,11.47
2022-08-23T02:13:43.608Z,11.44
2022-08-23T02:16:15.344Z,11.43
2022-08-23T02:18:46.957Z,11.47
2022-08-23T02:21:17.451Z,11.44
2022-08-23T02:23:48.557Z,11.35
2022-08-23T02:26:19.258Z,11.30
2022-08-23T02:28:54.687Z,11.32
2022-08-23T02:31:27.574Z,11.26
2022-08-23T02:33:58.322Z,11.16
2022-08-23T02:36:31.201Z,11.22
2022-08-23T02:39:01.558Z,11.27
2022-08-23T02:41:32.620Z,11.27
2022-08-23T02:44:02.669Z,11.23
2022-08-23T02:46:32.834Z,11.20
2022-08-23T02:49:02.873Z,11.15
2022-08-23T02:51:32.723Z,11.11
2022-08-23T02:54:02.471Z,11.09
2022-08-23T02:56:33.090Z,11.12
2022-08-23T02:59:03.151Z,11.22
2022-08-23T03:01:34.164Z,11.20
2022-08-23T03:04:16.360Z,11.18
2022-08-23T03:06:46.621Z,11.22
2022-08-23T03:09:15.938Z,11.19
2022-08-23T03:11:48.834Z,11.19
2022-08-23T03:14:20.313Z,11.12
2022-08-23T03:16:51.131Z,11.12
2022-08-23T03:19:21.374Z,11.11
2022-08-23T03:21:51.156Z,11.04
2022-08-23T03:24:22.451Z,10.94
2022-08-23T03:26:53.464Z,10.91
2022-08-23T03:29:24.119Z,10.87
2022-08-23T03:32:02.593Z,10.84
2022-08-23T03:34:37.216Z,10.99
2022-08-23T03:37:09.701Z,10.96
2022-08-23T03:39:40.009Z,10.98
2022-08-23T03:42:10.463Z,11.01
2022-08-23T03:44:40.415Z,10.99
2022-08-23T03:47:10.389Z,10.96
2022-08-23T03:49:43.249Z,10.96
2022-08-23T03:52:13.485Z,10.91
2022-08-23T03:54:43.297Z,10.85
2022-08-23T03:57:14.732Z,10.85
2022-08-23T03:59:45.596Z,10.85
2022-08-23T04:02:16.108Z,10.89
2022-08-23T04:04:46.684Z,10.94
2022-08-23T04:07:39.895Z,10.94
2022-08-23T04:10:16.462Z,10.84
2022-08-23T04:12:51.085Z,10.78
2022-08-23T04:15:21.561Z,10.77
2022-08-23T04:17:51.531Z,10.82
2022-08-23T04:20:21.394Z,10.95
2022-08-23T04:22:57.600Z,11.08
2022-08-23T04:25:34.382Z,11.12
2022-08-23T04:28:07.461Z,11.16
2022-08-23T04:30:37.452Z,11.20
2022-08-23T04:33:11.347Z,11.23
2022-08-23T04:35:43.580Z,11.14
2022-08-23T04:38:24.016Z,11.08
2022-08-23T04:41:16.272Z,11.04
2022-08-23T04:43:48.680Z,11.09
2022-08-23T04:46:19.474Z,11.01
2022-08-23T04:48:50.093Z,10.98
2022-08-23T04:51:23.336Z,11.01
2022-08-23T04:53:53.701Z,11.04
2022-08-23T04:56:55.273Z,11.11
2022-08-23T04:59:25.881Z,11.16
2022-08-23T05:01:55.796Z,11.23
2022-08-23T05:04:25.177Z,11.29
2022-08-23T05:06:54.865Z,11.40
2022-08-23T05:09:26.215Z,11.43
2022-08-23T05:11:57.522Z,11.44
2022-08-23T05:14:28.097Z,11.42
2022-08-23T05:16:58.897Z,11.37
2022-08-23T05:19:29.649Z,11.36
2022-08-23T05:21:59.693Z,11.40
2022-08-23T05:24:47.930Z,11.39
2022-08-23T05:27:18.145Z,11.36
2022-08-23T05:29:48.360Z,11.33
2022-08-23T05:32:18.371Z,11.36
2022-08-23T05:34:48.628Z,11.35
2022-08-23T05:37:19.032Z,11.33
2022-08-23T05:39:49.179Z,11.33
2022-08-23T05:42:20.580Z,11.27
2022-08-23T05:44:50.752Z,11.32
2022-08-23T05:47:23.634Z,11.27
2022-08-23T05:50:04.717Z,11.26
2022-08-23T05:52:37.896Z,11.30
2022-08-23T05:55:08.914Z,11.37
2022-08-23T05:57:58.322Z,11.50
2022-08-23T06:00:37.868Z,11.50
2022-08-23T06:03:11.738Z,11.56
2022-08-23T06:05:43.440Z,11.62
2022-08-23T06:08:14.582Z,11.69
2022-08-23T06:10:45.630Z,11.71
2022-08-23T06:13:25.793Z,11.75
2022-08-23T06:15:57.037Z,11.80
2022-08-23T06:18:29.704Z,11.87
2022-08-23T06:21:19.539Z,11.87
2022-08-23T06:23:52.102Z,11.87
2022-08-23T06:26:29.474Z,11.85
2022-08-23T06:29:03.509Z,11.84
2022-08-23T06:31:52.379Z,11.78
2022-08-23T06:34:39.456Z,11.75
2022-08-23T06:37:16.308Z,11.81
2022-08-23T06:40:05.751Z,11.84
2022-08-23T06:42:49.492Z,11.84
2022-08-23T06:45:33.975Z,11.81
2022-08-23T06:48:07.006Z,11.80
2022-08-23T06:50:37.091Z,11.73
2022-08-23T06:53:25.011Z,11.81
2022-08-23T06:56:22.141Z,11.85
2022-08-23T06:59:07.582Z,11.80
2022-08-23T07:02:07.870Z,11.81
2022-08-23T07:05:07.519Z,11.77
2022-08-23T07:07:44.844Z,11.70
2022-08-23T07:10:17.023Z,11.63
2022-08-23T07:12:47.308Z,11.64
2022-08-23T07:15:18.300Z,11.66
2022-08-23T07:17:48.841Z,11.66
2022-08-23T07:20:18.113Z,11.63
2022-08-23T07:22:48.188Z,11.54
2022-08-23T07:25:19.336Z,11.49
2022-08-23T07:27:52.689Z,11.49
2022-08-23T07:30:23.104Z,11.47
2022-08-23T07:32:54.796Z,11.53
2022-08-23T07:35:26.441Z,11.57
2022-08-23T07:37:59.357Z,11.56
2022-08-23T07:40:38.790Z,11.54
2022-08-23T07:43:09.557Z,11.57
2022-08-23T07:45:41.825Z,11.62
2022-08-23T07:48:14.347Z,11.54
2022-08-23T07:51:09.207Z,11.47
2022-08-23T07:53:45.785Z,11.40
2022-08-23T07:56:20.407Z,11.35
2022-08-23T07:59:17.494Z,11.39
2022-08-23T08:02:05.739Z,11.33
2022-08-23T08:04:37.137Z,11.39
2022-08-23T08:07:22.835Z,11.35
2022-08-23T08:10:01.142Z,11.39
2022-08-23T08:12:33.666Z,11.40
2022-08-23T08:15:12.860Z,11.33
2022-08-23T08:17:43.468Z,11.36
2022-08-23T08:20:21.248Z,11.37
2022-08-23T08:23:11.277Z,11.37
2022-08-23T08:26:03.717Z,11.35
2022-08-23T08:28:35.846Z,11.29
2022-08-23T08:31:06.950Z,11.29
2022-08-23T08:33:38.661Z,11.40
2022-08-23T08:36:10.437Z,11.30
2022-08-23T08:38:48.453Z,11.20
2022-08-23T08:41:41.894Z,11.27
2022-08-23T08:44:47.253Z,11.39
2022-08-23T08:47:47.259Z,11.39
2022-08-23T08:50:38.793Z,11.25
2022-08-23T08:53:40.860Z,11.35
2022-08-23T08:56:32.275Z,11.39
2022-08-23T08:59:27.351Z,11.42
2022-08-23T09:02:00.739Z,11.30
2022-08-23T09:04:38.709Z,11.27
2022-08-23T09:07:21.101Z,11.25
2022-08-23T09:10:21.944Z,11.27
2022-08-23T09:14:08.254Z,11.09
2022-08-23T09:16:59.194Z,11.20
2022-08-23T09:19:39.496Z,11.18
2022-08-23T09:22:29.002Z,11.16
2022-08-23T09:25:00.464Z,11.06
2022-08-23T09:27:42.729Z,11.04
2022-08-23T09:30:16.815Z,10.96
2022-08-23T09:32:52.819Z,11.01
2022-08-23T09:35:26.881Z,10.92
2022-08-23T09:38:22.279Z,10.77
2022-08-23T09:40:59.688Z,10.82
2022-08-23T09:43:32.738Z,10.82
2022-08-23T09:46:03.741Z,10.77
2022-08-23T09:48:43.590Z,10.74
2022-08-23T09:51:27.363Z,10.69
2022-08-23T09:54:09.551Z,10.78
2022-08-23T09:56:46.316Z,10.79
2022-08-23T09:59:28.617Z,10.69
2022-08-23T10:02:05.286Z,10.65
2022-08-23T10:04:48.273Z,10.57
2022-08-23T10:07:43.024Z,10.64
2022-08-23T10:10:51.135Z,10.71
2022-08-23T10:13:29.896Z,10.71
2022-08-23T10:16:27.001Z,10.71
2022-08-23T10:19:31.004Z,10.78
2022-08-23T10:22:14.894Z,10.74
2022-08-23T10:24:59.779Z,10.87
2022-08-23T10:28:11.844Z,10.96
2022-08-23T10:31:12.647Z,10.94
2022-08-23T10:34:04.089Z,11.06
2022-08-23T10:36:44.099Z,11.02
2022-08-23T10:39:31.168Z,11.02
2022-08-23T10:42:05.882Z,10.99
2022-08-23T10:44:39.387Z,10.99
2022-08-23T10:48:03.932Z,11.23
2022-08-23T10:50:57.365Z,11.35
2022-08-23T10:54:01.352Z,11.40
2022-08-23T10:56:31.947Z,11.35
2022-08-23T10:59:09.134Z,11.32
2022-08-23T11:02:12.399Z,11.29
2022-08-23T11:04:48.621Z,11.36
2022-08-23T11:07:42.402Z,11.56
2022-08-23T11:10:29.255Z,11.83
2022-08-23T11:13:20.612Z,11.71
2022-08-23T11:16:02.351Z,11.80
2022-08-23T11:18:47.526Z,11.94
2022-08-23T11:21:35.223Z,11.99
2022-08-23T11:24:08.221Z,11.97
2022-08-23T11:26:42.495Z,12.01
2022-08-23T11:29:12.622Z,12.08
2022-08-23T11:32:00.493Z,12.05
2022-08-23T11:35:00.971Z,12.17
2022-08-23T11:37:50.732Z,12.10
2022-08-23T11:40:57.038Z,12.06
2022-08-23T11:43:43.333Z,12.05
2022-08-23T11:46:28.567Z,12.25
2022-08-23T11:49:34.321Z,12.39
2022-08-23T11:52:11.333Z,12.38
2022-08-23T11:55:22.712Z,12.60
2022-08-23T11:58:09.477Z,12.63
2022-08-23T12:01:04.224Z,12.84
2022-08-23T12:03:38.134Z,16.65
2022-08-23T12:06:21.942Z,18.33
2022-08-23T12:09:03.152Z,17.53
2022-08-23T12:11:58.825Z,19.51
2022-08-23T12:14:33.965Z,19.08
2022-08-23T12:17:19.455Z,20.83
2022-08-23T12:20:02.502Z,21.39
2022-08-23T12:22:56.249Z,21.30
2022-08-23T12:25:26.735Z,20.96
2022-08-23T12:28:34.622Z,21.38
2022-08-23T12:31:18.808Z,20.88
2022-08-23T12:33:57.652Z,20.40
2022-08-23T12:37:03.808Z,20.86
2022-08-23T12:39:41.393Z,20.91
2022-08-23T12:42:28.697Z,21.44
2022-08-23T12:45:09.396Z,20.47
2022-08-23T12:47:43.359Z,20.67
2022-08-23T12:50:32.527Z,20.94
2022-08-23T12:53:06.984Z,20.55
2022-08-23T12:55:42.574Z,20.21
2022-08-23T12:58:14.909Z,20.36
2022-08-23T13:00:55.125Z,20.69
2022-08-23T13:03:45.712Z,20.80
2022-08-23T13:06:23.075Z,21.01
2022-08-23T13:08:59.765Z,20.83
2022-08-23T13:11:33.940Z,21.89
2022-08-23T13:14:31.278Z,22.02
2022-08-23T13:17:20.663Z,21.63
2022-08-23T13:19:54.919Z,21.49
2022-08-23T13:22:27.724Z,22.16
2022-08-23T13:25:28.613Z,22.21
2022-08-23T13:28:10.038Z,21.69
2022-08-23T13:30:40.315Z,21.89
2022-08-23T13:33:10.708Z,22.29
2022-08-23T13:35:45.605Z,22.37
2022-08-23T13:38:22.205Z,22.61
2022-08-23T13:41:09.918Z,22.30
2022-08-23T13:43:39.577Z,22.43
2022-08-23T13:46:22.854Z,22.39
2022-08-23T13:49:04.389Z,22.82
2022-08-23T13:51:36.952Z,23.03
2022-08-23T13:54:12.716Z,22.79
2022-08-23T13:56:45.667Z,22.60
2022-08-23T13:59:32.066Z,22.96
2022-08-23T14:02:04.978Z,22.75
2022-08-23T14:04:35.533Z,22.76
2022-08-23T14:07:06.081Z,22.88
2022-08-23T14:09:36.652Z,23.64
2022-08-23T14:12:10.359Z,23.54
2022-08-23T14:14:44.794Z,24.56
2022-08-23T14:17:17.140Z,25.21
2022-08-23T14:22:41.619Z,24.40
2022-08-23T14:25:13.556Z,24.77
2022-08-23T14:27:45.931Z,25.14
2022-08-23T14:30:34.444Z,25.14
2022-08-23T14:33:06.395Z,24.90
2022-08-23T14:35:36.490Z,24.51
2022-08-23T14:38:06.213Z,24.62
2022-08-23T14:40:37.405Z,24.94
2022-08-23T14:43:07.500Z,24.83
2022-08-23T14:45:37.505Z,25.88
2022-08-23T14:48:08.165Z,26.02
2022-08-23T14:50:38.207Z,25.71
2022-08-23T14:53:09.035Z,25.92
2022-08-23T14:55:39.018Z,26.00
2022-08-23T14:58:09.264Z,25.83
2022-08-23T15:00:40.045Z,25.39
2022-08-23T15:03:12.283Z,25.23
2022-08-23T15:05:42.720Z,25.57
2022-08-23T15:08:14.133Z,25.82
2022-08-23T15:12:55.342Z,25.94
2022-08-23T15:13:41.604Z,25.89
2022-08-23T15:16:26.274Z,26.09
2022-08-23T15:18:57.775Z,26.26
2022-08-23T15:21:28.800Z,26.41
2022-08-23T15:23:59.106Z,25.96
2022-08-23T15:26:32.504Z,25.64
2022-08-23T15:29:02.784Z,25.94
2022-08-23T15:31:32.708Z,25.94
2022-08-23T15:34:02.577Z,26.47
2022-08-23T15:36:33.676Z,26.98
2022-08-23T15:39:03.677Z,27.02
2022-08-23T15:41:33.553Z,27.40
2022-08-23T15:44:03.523Z,27.12
2022-08-23T15:46:33.391Z,27.06
2022-08-23T15:49:12.099Z,27.35
2022-08-23T15:51:42.978Z,27.98
2022-08-23T15:54:13.199Z,28.29
2022-08-23T15:56:50.828Z,27.84
2022-08-23T15:59:22.824Z,28.07
2022-08-23T16:01:52.766Z,27.30
2022-08-23T16:04:22.652Z,28.32
2022-08-23T16:06:52.659Z,27.43
2022-08-23T16:09:25.640Z,27.23
2022-08-23T16:12:00.072Z,27.15
2022-08-23T16:14:32.233Z,26.80
2022-08-23T16:17:02.900Z,27.12
2022-08-23T16:19:32.876Z,27.25
2022-08-23T16:22:02.912Z,27.33
2022-08-23T16:24:34.221Z,27.43
2022-08-23T16:27:05.830Z,27.49
2022-08-23T16:29:37.351Z,26.13
2022-08-23T16:32:09.526Z,25.83
2022-08-23T16:34:39.477Z,26.80
2022-08-23T16:37:10.819Z,27.97
2022-08-23T16:39:41.368Z,28.19
2022-08-23T16:42:11.203Z,28.53
2022-08-23T16:44:40.982Z,29.15
2022-08-23T16:47:12.358Z,29.81
2022-08-23T16:49:44.374Z,29.27
2022-08-23T16:52:15.222Z,29.57
2022-08-23T16:54:45.300Z,29.02
2022-08-23T16:57:18.044Z,29.20
2022-08-23T16:59:48.274Z,29.76
2022-08-23T17:02:30.895Z,29.65
2022-08-23T17:05:01.384Z,29.44
2022-08-23T17:07:32.357Z,29.88
2022-08-23T17:10:02.108Z,30.26
2022-08-23T17:12:33.352Z,30.50
2022-08-23T17:15:03.367Z,30.50
2022-08-23T17:17:33.707Z,31.14
2022-08-23T17:20:04.237Z,30.78
2022-08-23T17:22:36.993Z,30.24
2022-08-23T17:25:08.078Z,30.32
2022-08-23T17:27:43.140Z,31.07
2022-08-23T17:30:18.604Z,30.96
2022-08-23T17:32:50.052Z,31.26
2022-08-23T17:35:25.133Z,32.49
2022-08-23T17:37:56.099Z,31.98
2022-08-23T17:40:33.346Z,32.49
2022-08-23T17:43:04.548Z,32.32
2022-08-23T17:45:42.778Z,32.14
2022-08-23T17:48:13.595Z,32.99
2022-08-23T17:50:45.359Z,33.19
2022-08-23T17:53:19.575Z,33.20
2022-08-23T17:55:50.554Z,31.56
2022-08-23T17:58:21.081Z,29.73
2022-08-23T18:00:52.795Z,29.30
2022-08-23T18:03:24.025Z,32.31
2022-08-23T18:05:55.804Z,32.38
2022-08-23T18:08:26.205Z,32.29
2022-08-23T18:10:55.954Z,31.51
2022-08-23T18:13:26.965Z,30.65
2022-08-23T18:15:57.398Z,30.40
2022-08-23T18:18:27.297Z,30.26
2022-08-23T18:20:57.269Z,30.98
2022-08-23T18:23:27.404Z,29.66
2022-08-23T18:25:57.147Z,31.12
2022-08-23T18:28:26.980Z,30.63
2022-08-23T18:30:57.356Z,28.56
2022-08-23T18:33:31.487Z,31.25
2022-08-23T18:36:02.496Z,32.28
2022-08-23T18:38:32.210Z,31.49
2022-08-23T18:41:02.232Z,29.45
2022-08-23T18:43:37.256Z,28.69
2022-08-23T18:46:08.960Z,27.70
2022-08-23T18:48:39.920Z,27.57
2022-08-23T18:51:16.313Z,30.09
2022-08-23T18:53:48.416Z,31.76
2022-08-23T18:56:18.438Z,32.11
2022-08-23T18:58:48.975Z,32.72
2022-08-23T19:01:30.878Z,33.20
2022-08-23T19:04:03.375Z,32.55
2022-08-23T19:06:34.054Z,32.61
2022-08-23T19:09:04.992Z,32.45
2022-08-23T19:11:35.909Z,32.27
2022-08-23T19:14:07.624Z,31.80
2022-08-23T19:16:38.427Z,31.45
2022-08-23T19:19:08.470Z,27.43
2022-08-23T19:21:38.221Z,24.90
2022-08-23T19:24:08.205Z,23.89
2022-08-23T19:26:39.529Z,23.37
2022-08-23T19:29:11.112Z,22.95
2022-08-23T19:31:47.696Z,22.73
2022-08-23T19:34:20.918Z,22.52
2022-08-23T19:37:00.344Z,22.33
2022-08-23T19:39:32.164Z,22.16
2022-08-23T19:42:02.771Z,21.99
2022-08-23T19:44:36.798Z,21.71
2022-08-23T19:47:08.233Z,21.46
2022-08-23T19:49:47.847Z,21.27
2022-08-23T19:52:17.686Z,21.08
2022-08-23T19:54:47.503Z,20.93
2022-08-23T19:57:17.401Z,20.79
2022-08-23T19:59:47.180Z,20.66
2022-08-23T20:02:18.158Z,20.50
2022-08-23T20:04:48.235Z,20.22
2022-08-23T20:07:18.638Z,20.18
2022-08-23T20:09:48.375Z,20.14
2022-08-23T20:12:18.455Z,20.01
2022-08-23T20:14:50.758Z,20.04
2022-08-23T20:17:20.892Z,20.07
2022-08-23T20:19:51.008Z,20.05
2022-08-23T20:22:39.345Z,20.07
2022-08-23T20:25:10.220Z,20.08
2022-08-23T20:27:40.286Z,20.08
2022-08-23T20:30:11.660Z,20.11
2022-08-23T20:32:42.138Z,20.07
2022-08-23T20:35:12.754Z,19.94
2022-08-23T20:37:42.856Z,19.85
2022-08-23T20:40:13.025Z,19.79
2022-08-23T20:42:42.822Z,19.79
2022-08-23T20:45:12.775Z,19.74
2022-08-23T20:47:42.650Z,19.61
2022-08-23T20:50:12.496Z,19.47
2022-08-23T20:52:42.403Z,19.31
2022-08-23T20:55:12.949Z,19.20
2022-08-23T20:57:43.966Z,19.13
2022-08-23T21:00:14.516Z,19.08
2022-08-23T21:02:44.292Z,18.98
2022-08-23T21:05:14.101Z,18.94
2022-08-23T21:07:44.134Z,18.87
2022-08-23T21:10:14.403Z,18.89
2022-08-23T21:12:44.129Z,18.85
2022-08-23T21:15:14.122Z,18.87
2022-08-23T21:17:47.708Z,18.62
2022-08-23T21:20:18.171Z,18.40
2022-08-23T21:22:48.167Z,18.30
2022-08-23T21:25:18.248Z,18.03
2022-08-23T21:27:47.994Z,17.93
2022-08-23T21:30:17.954Z,17.73
2022-08-23T21:32:48.663Z,17.46
2022-08-23T21:35:18.493Z,17.32
2022-08-23T21:37:48.297Z,17.17
2022-08-23T21:40:18.138Z,17.03
2022-08-23T21:42:51.045Z,16.88
2022-08-23T21:45:21.438Z,16.74
2022-08-23T21:47:52.392Z,16.67
2022-08-23T21:50:24.478Z,16.63
2022-08-23T21:52:56.729Z,16.57
2022-08-23T21:55:36.149Z,16.49
2022-08-23T21:58:08.231Z,16.41
2022-08-23T22:00:38.500Z,16.25
2022-08-23T22:03:09.312Z,16.18
2022-08-23T22:05:43.495Z,16.11
2022-08-23T22:08:14.842Z,16.08
2022-08-23T22:10:52.267Z,16.09
2022-08-23T22:13:29.936Z,16.04
2022-08-23T22:16:01.511Z,16.00
2022-08-23T22:18:32.725Z,15.95
2022-08-23T22:21:03.614Z,15.90
2022-08-23T22:23:34.137Z,15.81
2022-08-23T22:26:07.126Z,15.74
2022-08-23T22:28:37.987Z,15.67
2022-08-23T22:31:09.573Z,15.56
2022-08-23T22:33:40.574Z,15.51
2022-08-23T22:36:14.912Z,15.47
2022-08-23T22:38:45.921Z,15.43
2022-08-23T22:41:29.378Z,15.42
2022-08-23T22:44:01.579Z,15.30
2022-08-23T22:46:34.172Z,15.27
2022-08-23T22:49:04.579Z,15.25
2022-08-23T22:51:37.511Z,15.22
2022-08-23T22:54:11.865Z,15.15
2022-08-23T22:56:45.613Z,15.09
2022-08-23T22:59:17.087Z,15.02
2022-08-23T23:01:55.116Z,14.99
2022-08-23T23:04:30.510Z,14.91
2022-08-23T23:07:00.760Z,14.88
2022-08-23T23:09:31.037Z,14.79
2022-08-23T23:12:01.345Z,14.84
2022-08-23T23:14:31.123Z,14.74
2022-08-23T23:17:01.187Z,14.69
2022-08-23T23:19:49.479Z,14.67
2022-08-23T23:22:19.384Z,14.61
2022-08-23T23:24:49.107Z,14.60
2022-08-23T23:27:19.799Z,14.63
2022-08-23T23:29:49.569Z,14.68
2022-08-23T23:32:20.218Z,14.65
2022-08-23T23:34:50.073Z,14.63
2022-08-23T23:37:19.767Z,14.69
2022-08-23T23:39:50.748Z,14.67
2022-08-23T23:42:20.550Z,14.63
2022-08-23T23:44:50.383Z,14.64
2022-08-23T23:47:20.167Z,14.64
2022-08-23T23:49:51.858Z,14.54
2022-08-23T23:52:21.618Z,14.61
2022-08-23T23:54:51.372Z,14.58
2022-08-23T23:57:21.331Z,14.50
2022-08-23T23:59:51.206Z,14.37
